sensor_id;sensor_type;location;lat;lon;timestamp;P1;durP1;ratioP1;P2;durP2;ratioP2
41470;SDS011;27211;51.220;5.308;2022-07-23T00:02:12;11.77;;;6.45;;
41470;SDS011;27211;51.220;5.308;2022-07-23T00:04:45;11.45;;;6.45;;
41470;SDS011;27211;51.220;5.308;2022-07-23T00:07:14;11.65;;;6.25;;
41470;SDS011;27211;51.220;5.308;2022-07-23T00:09:40;10.40;;;6.45;;
41470;SDS011;27211;51.220;5.308;2022-07-23T00:12:08;10.88;;;6.97;;
41470;SDS011;27211;51.220;5.308;2022-07-23T00:14:34;11.80;;;7.07;;
41470;SDS011;27211;51.220;5.308;2022-07-23T00:17:00;11.30;;;7.28;;
41470;SDS011;27211;51.220;5.308;2022-07-23T00:19:25;11.65;;;6.65;;
41470;SDS011;27211;51.220;5.308;2022-07-23T00:21:54;12.95;;;6.90;;
41470;SDS011;27211;51.220;5.308;2022-07-23T00:24:27;14.13;;;6.60;;
41470;SDS011;27211;51.220;5.308;2022-07-23T00:26:54;11.38;;;7.25;;
41470;SDS011;27211;51.220;5.308;2022-07-23T00:29:32;11.70;;;7.05;;
41470;SDS011;27211;51.220;5.308;2022-07-23T00:31:58;14.60;;;8.23;;
41470;SDS011;27211;51.220;5.308;2022-07-23T00:34:24;12.43;;;8.23;;
41470;SDS011;27211;51.220;5.308;2022-07-23T00:37:00;12.02;;;7.70;;
41470;SDS011;27211;51.220;5.308;2022-07-23T00:39:29;11.00;;;6.82;;
41470;SDS011;27211;51.220;5.308;2022-07-23T00:41:57;10.13;;;7.15;;
41470;SDS011;27211;51.220;5.308;2022-07-23T00:44:24;11.63;;;6.72;;
41470;SDS011;27211;51.220;5.308;2022-07-23T00:46:54;13.50;;;7.32;;
41470;SDS011;27211;51.220;5.308;2022-07-23T00:49:22;11.07;;;7.45;;
41470;SDS011;27211;51.220;5.308;2022-07-23T00:51:50;12.23;;;6.75;;
41470;SDS011;27211;51.220;5.308;2022-07-23T00:54:17;12.80;;;7.00;;
41470;SDS011;27211;51.220;5.308;2022-07-23T00:56:50;12.07;;;6.63;;
41470;SDS011;27211;51.220;5.308;2022-07-23T00:59:16;13.15;;;6.85;;
41470;SDS011;27211;51.220;5.308;2022-07-23T01:01:42;9.95;;;6.28;;
41470;SDS011;27211;51.220;5.308;2022-07-23T01:04:23;9.68;;;6.13;;
41470;SDS011;27211;51.220;5.308;2022-07-23T01:07:00;10.63;;;6.53;;
41470;SDS011;27211;51.220;5.308;2022-07-23T01:09:30;12.45;;;6.45;;
41470;SDS011;27211;51.220;5.308;2022-07-23T01:11:58;11.38;;;7.00;;
41470;SDS011;27211;51.220;5.308;2022-07-23T01:14:33;9.75;;;6.30;;
41470;SDS011;27211;51.220;5.308;2022-07-23T01:17:00;11.57;;;6.15;;
41470;SDS011;27211;51.220;5.308;2022-07-23T01:19:36;11.50;;;6.07;;
41470;SDS011;27211;51.220;5.308;2022-07-23T01:22:03;11.43;;;6.38;;
41470;SDS011;27211;51.220;5.308;2022-07-23T01:24:31;9.35;;;6.57;;
41470;SDS011;27211;51.220;5.308;2022-07-23T01:27:09;11.70;;;6.90;;
41470;SDS011;27211;51.220;5.308;2022-07-23T01:29:45;9.95;;;6.15;;
41470;SDS011;27211;51.220;5.308;2022-07-23T01:32:21;10.18;;;6.30;;
41470;SDS011;27211;51.220;5.308;2022-07-23T01:34:50;13.82;;;6.43;;
41470;SDS011;27211;51.220;5.308;2022-07-23T01:37:23;13.35;;;7.00;;
41470;SDS011;27211;51.220;5.308;2022-07-23T01:40:02;12.98;;;7.07;;
41470;SDS011;27211;51.220;5.308;2022-07-23T01:42:39;10.82;;;7.32;;
41470;SDS011;27211;51.220;5.308;2022-07-23T01:45:05;11.48;;;7.75;;
41470;SDS011;27211;51.220;5.308;2022-07-23T01:47:42;11.52;;;7.22;;
41470;SDS011;27211;51.220;5.308;2022-07-23T01:50:17;12.85;;;7.88;;
41470;SDS011;27211;51.220;5.308;2022-07-23T01:52:53;12.90;;;8.20;;
41470;SDS011;27211;51.220;5.308;2022-07-23T01:55:19;14.45;;;8.32;;
41470;SDS011;27211;51.220;5.308;2022-07-23T01:57:50;12.95;;;8.45;;
41470;SDS011;27211;51.220;5.308;2022-07-23T02:00:26;11.77;;;8.68;;
41470;SDS011;27211;51.220;5.308;2022-07-23T02:03:08;12.27;;;8.68;;
41470;SDS011;27211;51.220;5.308;2022-07-23T02:05:47;12.13;;;8.80;;
41470;SDS011;27211;51.220;5.308;2022-07-23T02:08:23;14.32;;;8.50;;
41470;SDS011;27211;51.220;5.308;2022-07-23T02:10:54;13.68;;;8.70;;
41470;SDS011;27211;51.220;5.308;2022-07-23T02:13:22;13.90;;;8.70;;
41470;SDS011;27211;51.220;5.308;2022-07-23T02:15:53;13.05;;;8.63;;
41470;SDS011;27211;51.220;5.308;2022-07-23T02:18:47;16.08;;;9.65;;
41470;SDS011;27211;51.220;5.308;2022-07-23T02:21:17;16.00;;;9.23;;
41470;SDS011;27211;51.220;5.308;2022-07-23T02:23:56;14.75;;;8.98;;
41470;SDS011;27211;51.220;5.308;2022-07-23T02:26:23;11.23;;;8.60;;
41470;SDS011;27211;51.220;5.308;2022-07-23T02:28:57;13.73;;;8.70;;
41470;SDS011;27211;51.220;5.308;2022-07-23T02:31:26;14.02;;;8.70;;
41470;SDS011;27211;51.220;5.308;2022-07-23T02:34:15;12.85;;;8.60;;
41470;SDS011;27211;51.220;5.308;2022-07-23T02:36:43;13.57;;;8.43;;
41470;SDS011;27211;51.220;5.308;2022-07-23T02:39:09;13.88;;;9.38;;
41470;SDS011;27211;51.220;5.308;2022-07-23T02:41:35;16.15;;;9.05;;
41470;SDS011;27211;51.220;5.308;2022-07-23T02:44:01;13.55;;;8.82;;
41470;SDS011;27211;51.220;5.308;2022-07-23T02:46:27;11.80;;;8.75;;
41470;SDS011;27211;51.220;5.308;2022-07-23T02:48:54;12.57;;;8.48;;
41470;SDS011;27211;51.220;5.308;2022-07-23T02:51:19;13.02;;;8.50;;
41470;SDS011;27211;51.220;5.308;2022-07-23T02:53:45;12.13;;;8.95;;
41470;SDS011;27211;51.220;5.308;2022-07-23T02:56:11;13.70;;;8.88;;
41470;SDS011;27211;51.220;5.308;2022-07-23T02:58:38;11.32;;;8.70;;
41470;SDS011;27211;51.220;5.308;2022-07-23T03:01:04;14.07;;;9.00;;
41470;SDS011;27211;51.220;5.308;2022-07-23T03:03:30;10.88;;;8.52;;
41470;SDS011;27211;51.220;5.308;2022-07-23T03:05:56;12.90;;;9.02;;
41470;SDS011;27211;51.220;5.308;2022-07-23T03:08:22;12.38;;;8.15;;
41470;SDS011;27211;51.220;5.308;2022-07-23T03:10:48;16.25;;;9.50;;
41470;SDS011;27211;51.220;5.308;2022-07-23T03:13:14;11.65;;;8.43;;
41470;SDS011;27211;51.220;5.308;2022-07-23T03:15:41;11.57;;;8.43;;
41470;SDS011;27211;51.220;5.308;2022-07-23T03:18:06;13.07;;;8.55;;
41470;SDS011;27211;51.220;5.308;2022-07-23T03:20:32;15.57;;;9.38;;
41470;SDS011;27211;51.220;5.308;2022-07-23T03:22:58;12.63;;;8.85;;
41470;SDS011;27211;51.220;5.308;2022-07-23T03:25:24;11.85;;;8.23;;
41470;SDS011;27211;51.220;5.308;2022-07-23T03:27:50;13.77;;;8.60;;
41470;SDS011;27211;51.220;5.308;2022-07-23T03:30:16;12.73;;;9.23;;
41470;SDS011;27211;51.220;5.308;2022-07-23T03:32:41;13.93;;;8.95;;
41470;SDS011;27211;51.220;5.308;2022-07-23T03:35:07;13.02;;;8.90;;
41470;SDS011;27211;51.220;5.308;2022-07-23T03:37:33;13.82;;;9.68;;
41470;SDS011;27211;51.220;5.308;2022-07-23T03:39:59;12.65;;;9.15;;
41470;SDS011;27211;51.220;5.308;2022-07-23T03:42:25;15.32;;;9.07;;
41470;SDS011;27211;51.220;5.308;2022-07-23T03:44:52;16.23;;;9.57;;
41470;SDS011;27211;51.220;5.308;2022-07-23T03:47:18;17.63;;;9.55;;
41470;SDS011;27211;51.220;5.308;2022-07-23T03:49:46;13.73;;;9.05;;
41470;SDS011;27211;51.220;5.308;2022-07-23T03:52:13;12.32;;;9.10;;
41470;SDS011;27211;51.220;5.308;2022-07-23T03:54:40;12.95;;;9.65;;
41470;SDS011;27211;51.220;5.308;2022-07-23T03:57:05;16.10;;;9.23;;
41470;SDS011;27211;51.220;5.308;2022-07-23T03:59:31;13.70;;;9.32;;
41470;SDS011;27211;51.220;5.308;2022-07-23T04:01:57;13.23;;;9.30;;
41470;SDS011;27211;51.220;5.308;2022-07-23T04:04:23;11.90;;;9.10;;
41470;SDS011;27211;51.220;5.308;2022-07-23T04:06:49;14.05;;;9.90;;
41470;SDS011;27211;51.220;5.308;2022-07-23T04:09:15;11.73;;;8.55;;
41470;SDS011;27211;51.220;5.308;2022-07-23T04:11:41;14.90;;;9.00;;
41470;SDS011;27211;51.220;5.308;2022-07-23T04:14:07;13.05;;;9.38;;
41470;SDS011;27211;51.220;5.308;2022-07-23T04:16:33;11.57;;;8.70;;
41470;SDS011;27211;51.220;5.308;2022-07-23T04:18:59;12.57;;;8.65;;
41470;SDS011;27211;51.220;5.308;2022-07-23T04:21:25;13.32;;;8.40;;
41470;SDS011;27211;51.220;5.308;2022-07-23T04:23:51;13.88;;;8.70;;
41470;SDS011;27211;51.220;5.308;2022-07-23T04:26:18;14.95;;;8.20;;
41470;SDS011;27211;51.220;5.308;2022-07-23T04:28:43;12.82;;;7.90;;
41470;SDS011;27211;51.220;5.308;2022-07-23T04:31:09;12.80;;;8.30;;
41470;SDS011;27211;51.220;5.308;2022-07-23T04:33:35;14.82;;;8.68;;
41470;SDS011;27211;51.220;5.308;2022-07-23T04:36:04;11.48;;;8.32;;
41470;SDS011;27211;51.220;5.308;2022-07-23T04:38:31;13.15;;;8.15;;
41470;SDS011;27211;51.220;5.308;2022-07-23T04:40:57;11.57;;;8.13;;
41470;SDS011;27211;51.220;5.308;2022-07-23T04:43:26;13.02;;;8.45;;
41470;SDS011;27211;51.220;5.308;2022-07-23T04:45:52;11.25;;;8.00;;
41470;SDS011;27211;51.220;5.308;2022-07-23T04:48:18;11.98;;;8.35;;
41470;SDS011;27211;51.220;5.308;2022-07-23T04:50:44;11.85;;;8.18;;
41470;SDS011;27211;51.220;5.308;2022-07-23T04:53:10;12.60;;;8.85;;
41470;SDS011;27211;51.220;5.308;2022-07-23T04:55:36;10.88;;;8.18;;
41470;SDS011;27211;51.220;5.308;2022-07-23T04:58:02;13.57;;;8.57;;
41470;SDS011;27211;51.220;5.308;2022-07-23T05:00:28;10.43;;;7.93;;
41470;SDS011;27211;51.220;5.308;2022-07-23T05:02:54;14.60;;;8.27;;
41470;SDS011;27211;51.220;5.308;2022-07-23T05:05:19;11.43;;;8.23;;
41470;SDS011;27211;51.220;5.308;2022-07-23T05:07:45;11.10;;;8.05;;
41470;SDS011;27211;51.220;5.308;2022-07-23T05:10:11;13.55;;;7.10;;
41470;SDS011;27211;51.220;5.308;2022-07-23T05:12:37;11.23;;;8.05;;
41470;SDS011;27211;51.220;5.308;2022-07-23T05:15:03;13.02;;;7.85;;
41470;SDS011;27211;51.220;5.308;2022-07-23T05:17:30;12.65;;;8.05;;
41470;SDS011;27211;51.220;5.308;2022-07-23T05:19:56;10.32;;;7.60;;
41470;SDS011;27211;51.220;5.308;2022-07-23T05:22:21;9.13;;;7.15;;
41470;SDS011;27211;51.220;5.308;2022-07-23T05:24:47;12.30;;;7.50;;
41470;SDS011;27211;51.220;5.308;2022-07-23T05:27:13;12.75;;;7.75;;
41470;SDS011;27211;51.220;5.308;2022-07-23T05:29:38;9.27;;;7.22;;
41470;SDS011;27211;51.220;5.308;2022-07-23T05:32:04;11.85;;;7.50;;
41470;SDS011;27211;51.220;5.308;2022-07-23T05:34:30;10.10;;;7.13;;
41470;SDS011;27211;51.220;5.308;2022-07-23T05:36:56;12.18;;;7.28;;
41470;SDS011;27211;51.220;5.308;2022-07-23T05:39:22;11.18;;;7.32;;
41470;SDS011;27211;51.220;5.308;2022-07-23T05:41:48;11.68;;;6.35;;
41470;SDS011;27211;51.220;5.308;2022-07-23T05:44:14;10.05;;;6.50;;
41470;SDS011;27211;51.220;5.308;2022-07-23T05:46:40;8.38;;;5.30;;
41470;SDS011;27211;51.220;5.308;2022-07-23T05:49:06;8.32;;;6.10;;
41470;SDS011;27211;51.220;5.308;2022-07-23T05:51:32;8.82;;;5.72;;
41470;SDS011;27211;51.220;5.308;2022-07-23T05:53:58;10.40;;;5.75;;
41470;SDS011;27211;51.220;5.308;2022-07-23T05:56:24;10.93;;;5.95;;
41470;SDS011;27211;51.220;5.308;2022-07-23T05:58:50;9.10;;;5.88;;
41470;SDS011;27211;51.220;5.308;2022-07-23T06:01:16;8.13;;;5.75;;
41470;SDS011;27211;51.220;5.308;2022-07-23T06:03:42;7.85;;;5.32;;
41470;SDS011;27211;51.220;5.308;2022-07-23T06:06:08;8.43;;;5.10;;
41470;SDS011;27211;51.220;5.308;2022-07-23T06:08:33;9.00;;;5.40;;
41470;SDS011;27211;51.220;5.308;2022-07-23T06:10:59;7.40;;;5.32;;
41470;SDS011;27211;51.220;5.308;2022-07-23T06:13:25;9.63;;;5.07;;
41470;SDS011;27211;51.220;5.308;2022-07-23T06:15:53;9.40;;;6.20;;
41470;SDS011;27211;51.220;5.308;2022-07-23T06:18:19;8.32;;;5.10;;
41470;SDS011;27211;51.220;5.308;2022-07-23T06:20:46;9.25;;;5.60;;
41470;SDS011;27211;51.220;5.308;2022-07-23T06:23:11;7.03;;;4.82;;
41470;SDS011;27211;51.220;5.308;2022-07-23T06:25:38;8.48;;;5.43;;
41470;SDS011;27211;51.220;5.308;2022-07-23T06:28:04;9.95;;;5.20;;
41470;SDS011;27211;51.220;5.308;2022-07-23T06:30:30;7.88;;;4.93;;
41470;SDS011;27211;51.220;5.308;2022-07-23T06:32:55;7.78;;;5.13;;
41470;SDS011;27211;51.220;5.308;2022-07-23T06:35:22;7.45;;;4.95;;
41470;SDS011;27211;51.220;5.308;2022-07-23T06:37:47;7.22;;;4.88;;
41470;SDS011;27211;51.220;5.308;2022-07-23T06:40:13;7.75;;;4.88;;
41470;SDS011;27211;51.220;5.308;2022-07-23T06:42:39;8.82;;;4.40;;
41470;SDS011;27211;51.220;5.308;2022-07-23T06:45:06;8.35;;;4.95;;
41470;SDS011;27211;51.220;5.308;2022-07-23T06:47:32;6.78;;;4.78;;
41470;SDS011;27211;51.220;5.308;2022-07-23T06:49:58;8.43;;;4.72;;
41470;SDS011;27211;51.220;5.308;2022-07-23T06:52:24;7.00;;;4.07;;
41470;SDS011;27211;51.220;5.308;2022-07-23T06:54:51;10.98;;;4.88;;
41470;SDS011;27211;51.220;5.308;2022-07-23T06:57:18;9.18;;;4.03;;
41470;SDS011;27211;51.220;5.308;2022-07-23T06:59:43;9.13;;;3.80;;
41470;SDS011;27211;51.220;5.308;2022-07-23T07:02:09;8.52;;;4.18;;
41470;SDS011;27211;51.220;5.308;2022-07-23T07:04:35;8.57;;;4.13;;
41470;SDS011;27211;51.220;5.308;2022-07-23T07:07:01;7.63;;;3.30;;
41470;SDS011;27211;51.220;5.308;2022-07-23T07:09:27;6.22;;;3.75;;
41470;SDS011;27211;51.220;5.308;2022-07-23T07:11:54;10.07;;;4.07;;
41470;SDS011;27211;51.220;5.308;2022-07-23T07:14:20;8.25;;;3.90;;
41470;SDS011;27211;51.220;5.308;2022-07-23T07:16:46;6.38;;;3.47;;
41470;SDS011;27211;51.220;5.308;2022-07-23T07:19:12;8.45;;;3.35;;
41470;SDS011;27211;51.220;5.308;2022-07-23T07:21:38;7.03;;;3.58;;
41470;SDS011;27211;51.220;5.308;2022-07-23T07:24:04;6.00;;;3.15;;
41470;SDS011;27211;51.220;5.308;2022-07-23T07:26:31;5.38;;;3.10;;
41470;SDS011;27211;51.220;5.308;2022-07-23T07:28:58;7.13;;;3.55;;
41470;SDS011;27211;51.220;5.308;2022-07-23T07:31:24;6.78;;;3.33;;
41470;SDS011;27211;51.220;5.308;2022-07-23T07:33:50;7.32;;;3.30;;
41470;SDS011;27211;51.220;5.308;2022-07-23T07:36:16;5.88;;;2.95;;
41470;SDS011;27211;51.220;5.308;2022-07-23T07:38:42;8.40;;;3.33;;
41470;SDS011;27211;51.220;5.308;2022-07-23T07:41:07;7.03;;;3.25;;
41470;SDS011;27211;51.220;5.308;2022-07-23T07:43:35;8.55;;;3.25;;
41470;SDS011;27211;51.220;5.308;2022-07-23T07:46:01;6.63;;;3.20;;
41470;SDS011;27211;51.220;5.308;2022-07-23T07:48:28;6.53;;;2.80;;
41470;SDS011;27211;51.220;5.308;2022-07-23T07:50:54;6.00;;;2.75;;
41470;SDS011;27211;51.220;5.308;2022-07-23T07:53:20;5.10;;;2.95;;
41470;SDS011;27211;51.220;5.308;2022-07-23T07:55:46;6.28;;;3.35;;
41470;SDS011;27211;51.220;5.308;2022-07-23T07:58:11;5.90;;;3.00;;
41470;SDS011;27211;51.220;5.308;2022-07-23T08:00:37;7.25;;;3.08;;
41470;SDS011;27211;51.220;5.308;2022-07-23T08:03:03;5.30;;;2.92;;
41470;SDS011;27211;51.220;5.308;2022-07-23T08:05:30;9.65;;;3.45;;
41470;SDS011;27211;51.220;5.308;2022-07-23T08:07:56;8.40;;;3.70;;
41470;SDS011;27211;51.220;5.308;2022-07-23T08:10:23;6.47;;;3.35;;
41470;SDS011;27211;51.220;5.308;2022-07-23T08:12:51;6.72;;;3.60;;
41470;SDS011;27211;51.220;5.308;2022-07-23T08:15:18;7.97;;;3.55;;
41470;SDS011;27211;51.220;5.308;2022-07-23T08:17:46;7.20;;;3.60;;
41470;SDS011;27211;51.220;5.308;2022-07-23T08:20:14;7.90;;;4.35;;
41470;SDS011;27211;51.220;5.308;2022-07-23T08:25:36;8.05;;;3.35;;
41470;SDS011;27211;51.220;5.308;2022-07-23T08:28:05;5.65;;;3.38;;
41470;SDS011;27211;51.220;5.308;2022-07-23T08:30:33;6.88;;;3.58;;
41470;SDS011;27211;51.220;5.308;2022-07-23T08:35:40;7.43;;;3.30;;
41470;SDS011;27211;51.220;5.308;2022-07-23T08:38:13;7.28;;;3.35;;
41470;SDS011;27211;51.220;5.308;2022-07-23T08:40:44;5.78;;;3.58;;
41470;SDS011;27211;51.220;5.308;2022-07-23T08:43:19;6.32;;;3.72;;
41470;SDS011;27211;51.220;5.308;2022-07-23T08:48:19;5.80;;;3.60;;
41470;SDS011;27211;51.220;5.308;2022-07-23T08:50:50;7.82;;;3.40;;
41470;SDS011;27211;51.220;5.308;2022-07-23T08:53:18;8.48;;;3.20;;
41470;SDS011;27211;51.220;5.308;2022-07-23T08:55:45;6.15;;;4.00;;
41470;SDS011;27211;51.220;5.308;2022-07-23T08:58:12;6.75;;;3.63;;
41470;SDS011;27211;51.220;5.308;2022-07-23T09:00:39;6.65;;;3.38;;
41470;SDS011;27211;51.220;5.308;2022-07-23T09:03:05;6.90;;;3.40;;
41470;SDS011;27211;51.220;5.308;2022-07-23T09:05:31;6.40;;;3.85;;
41470;SDS011;27211;51.220;5.308;2022-07-23T09:08:10;7.53;;;3.50;;
41470;SDS011;27211;51.220;5.308;2022-07-23T09:16:14;7.60;;;3.25;;
41470;SDS011;27211;51.220;5.308;2022-07-23T09:18:45;6.85;;;3.50;;
41470;SDS011;27211;51.220;5.308;2022-07-23T09:28:52;5.32;;;2.63;;
41470;SDS011;27211;51.220;5.308;2022-07-23T09:31:20;5.65;;;3.05;;
41470;SDS011;27211;51.220;5.308;2022-07-23T09:33:46;6.88;;;2.90;;
41470;SDS011;27211;51.220;5.308;2022-07-23T09:36:13;5.53;;;2.22;;
41470;SDS011;27211;51.220;5.308;2022-07-23T09:38:49;5.93;;;3.40;;
41470;SDS011;27211;51.220;5.308;2022-07-23T09:41:15;5.50;;;3.17;;
41470;SDS011;27211;51.220;5.308;2022-07-23T09:43:42;5.95;;;3.00;;
41470;SDS011;27211;51.220;5.308;2022-07-23T09:46:27;6.18;;;2.78;;
41470;SDS011;27211;51.220;5.308;2022-07-23T09:48:54;5.07;;;2.85;;
41470;SDS011;27211;51.220;5.308;2022-07-23T09:54:02;4.50;;;2.33;;
41470;SDS011;27211;51.220;5.308;2022-07-23T09:56:29;6.78;;;3.08;;
41470;SDS011;27211;51.220;5.308;2022-07-23T09:58:56;5.63;;;2.60;;
41470;SDS011;27211;51.220;5.308;2022-07-23T10:01:52;5.00;;;2.38;;
41470;SDS011;27211;51.220;5.308;2022-07-23T10:04:22;4.18;;;2.20;;
41470;SDS011;27211;51.220;5.308;2022-07-23T10:06:52;4.15;;;2.10;;
41470;SDS011;27211;51.220;5.308;2022-07-23T10:09:26;5.32;;;2.00;;
41470;SDS011;27211;51.220;5.308;2022-07-23T10:11:57;3.70;;;2.08;;
41470;SDS011;27211;51.220;5.308;2022-07-23T10:14:30;4.35;;;2.00;;
41470;SDS011;27211;51.220;5.308;2022-07-23T10:16:58;4.03;;;2.08;;
41470;SDS011;27211;51.220;5.308;2022-07-23T10:19:25;4.68;;;1.75;;
41470;SDS011;27211;51.220;5.308;2022-07-23T10:22:30;4.13;;;1.80;;
41470;SDS011;27211;51.220;5.308;2022-07-23T10:30:28;2.53;;;1.70;;
41470;SDS011;27211;51.220;5.308;2022-07-23T10:36:08;5.15;;;2.13;;
41470;SDS011;27211;51.220;5.308;2022-07-23T10:38:46;4.03;;;1.92;;
41470;SDS011;27211;51.220;5.308;2022-07-23T10:41:30;5.22;;;2.08;;
41470;SDS011;27211;51.220;5.308;2022-07-23T10:44:11;3.95;;;2.08;;
41470;SDS011;27211;51.220;5.308;2022-07-23T10:49:34;4.03;;;2.05;;
41470;SDS011;27211;51.220;5.308;2022-07-23T10:54:56;5.50;;;2.60;;
41470;SDS011;27211;51.220;5.308;2022-07-23T10:57:49;3.88;;;2.20;;
41470;SDS011;27211;51.220;5.308;2022-07-23T11:00:17;4.03;;;2.00;;
41470;SDS011;27211;51.220;5.308;2022-07-23T11:05:17;4.72;;;2.35;;
41470;SDS011;27211;51.220;5.308;2022-07-23T11:10:48;5.82;;;2.17;;
41470;SDS011;27211;51.220;5.308;2022-07-23T11:13:30;5.20;;;2.40;;
41470;SDS011;27211;51.220;5.308;2022-07-23T11:32:05;6.32;;;2.63;;
41470;SDS011;27211;51.220;5.308;2022-07-23T11:34:46;4.40;;;2.40;;
41470;SDS011;27211;51.220;5.308;2022-07-23T11:39:58;3.85;;;2.20;;
41470;SDS011;27211;51.220;5.308;2022-07-23T11:42:25;5.80;;;2.00;;
41470;SDS011;27211;51.220;5.308;2022-07-23T11:44:51;4.88;;;1.90;;
41470;SDS011;27211;51.220;5.308;2022-07-23T11:47:21;3.65;;;1.95;;
41470;SDS011;27211;51.220;5.308;2022-07-23T11:49:55;4.38;;;1.90;;
41470;SDS011;27211;51.220;5.308;2022-07-23T11:52:23;3.92;;;2.20;;
41470;SDS011;27211;51.220;5.308;2022-07-23T11:57:27;8.20;;;2.60;;
41470;SDS011;27211;51.220;5.308;2022-07-23T12:00:06;3.47;;;1.92;;
41470;SDS011;27211;51.220;5.308;2022-07-23T12:02:38;5.78;;;2.60;;
41470;SDS011;27211;51.220;5.308;2022-07-23T12:05:11;6.20;;;2.53;;
41470;SDS011;27211;51.220;5.308;2022-07-23T12:07:41;4.95;;;2.42;;
41470;SDS011;27211;51.220;5.308;2022-07-23T12:12:52;5.60;;;2.65;;
41470;SDS011;27211;51.220;5.308;2022-07-23T12:15:21;5.15;;;2.10;;
41470;SDS011;27211;51.220;5.308;2022-07-23T12:17:52;5.43;;;2.42;;
41470;SDS011;27211;51.220;5.308;2022-07-23T12:20:22;4.30;;;2.20;;
41470;SDS011;27211;51.220;5.308;2022-07-23T12:23:03;5.72;;;2.17;;
41470;SDS011;27211;51.220;5.308;2022-07-23T12:25:35;3.58;;;2.22;;
41470;SDS011;27211;51.220;5.308;2022-07-23T12:28:10;7.05;;;2.28;;
41470;SDS011;27211;51.220;5.308;2022-07-23T12:30:44;3.80;;;2.22;;
41470;SDS011;27211;51.220;5.308;2022-07-23T12:33:25;3.97;;;1.92;;
41470;SDS011;27211;51.220;5.308;2022-07-23T12:36:09;3.33;;;1.60;;
41470;SDS011;27211;51.220;5.308;2022-07-23T12:38:40;4.68;;;2.05;;
41470;SDS011;27211;51.220;5.308;2022-07-23T12:41:08;4.38;;;2.08;;
41470;SDS011;27211;51.220;5.308;2022-07-23T12:43:38;3.50;;;2.10;;
41470;SDS011;27211;51.220;5.308;2022-07-23T12:46:23;4.18;;;2.20;;
41470;SDS011;27211;51.220;5.308;2022-07-23T12:48:53;7.68;;;2.10;;
41470;SDS011;27211;51.220;5.308;2022-07-23T12:51:26;4.10;;;1.50;;
41470;SDS011;27211;51.220;5.308;2022-07-23T12:56:28;3.47;;;1.80;;
41470;SDS011;27211;51.220;5.308;2022-07-23T12:58:57;3.42;;;1.60;;
41470;SDS011;27211;51.220;5.308;2022-07-23T13:01:34;3.70;;;1.77;;
41470;SDS011;27211;51.220;5.308;2022-07-23T13:04:05;4.32;;;1.90;;
41470;SDS011;27211;51.220;5.308;2022-07-23T13:06:45;3.30;;;1.70;;
41470;SDS011;27211;51.220;5.308;2022-07-23T13:09:15;3.00;;;1.80;;
41470;SDS011;27211;51.220;5.308;2022-07-23T13:11:44;3.88;;;1.92;;
41470;SDS011;27211;51.220;5.308;2022-07-23T13:14:12;5.05;;;1.98;;
41470;SDS011;27211;51.220;5.308;2022-07-23T13:16:39;4.85;;;1.88;;
41470;SDS011;27211;51.220;5.308;2022-07-23T13:19:06;4.13;;;1.60;;
41470;SDS011;27211;51.220;5.308;2022-07-23T13:21:32;3.90;;;1.80;;
41470;SDS011;27211;51.220;5.308;2022-07-23T13:23:58;3.92;;;1.83;;
41470;SDS011;27211;51.220;5.308;2022-07-23T13:26:25;2.95;;;1.67;;
41470;SDS011;27211;51.220;5.308;2022-07-23T13:28:52;8.43;;;1.85;;
41470;SDS011;27211;51.220;5.308;2022-07-23T13:31:19;3.95;;;1.90;;
41470;SDS011;27211;51.220;5.308;2022-07-23T13:33:45;4.20;;;1.80;;
41470;SDS011;27211;51.220;5.308;2022-07-23T13:36:11;5.95;;;1.85;;
41470;SDS011;27211;51.220;5.308;2022-07-23T13:38:37;2.30;;;1.40;;
41470;SDS011;27211;51.220;5.308;2022-07-23T13:41:04;4.80;;;1.98;;
41470;SDS011;27211;51.220;5.308;2022-07-23T13:43:31;3.47;;;1.60;;
41470;SDS011;27211;51.220;5.308;2022-07-23T13:45:58;4.00;;;1.70;;
41470;SDS011;27211;51.220;5.308;2022-07-23T13:48:24;3.80;;;1.60;;
41470;SDS011;27211;51.220;5.308;2022-07-23T13:50:50;5.65;;;1.52;;
41470;SDS011;27211;51.220;5.308;2022-07-23T13:53:17;4.13;;;1.80;;
41470;SDS011;27211;51.220;5.308;2022-07-23T13:55:46;3.15;;;1.50;;
41470;SDS011;27211;51.220;5.308;2022-07-23T13:58:12;4.15;;;1.70;;
41470;SDS011;27211;51.220;5.308;2022-07-23T14:00:42;4.60;;;1.80;;
41470;SDS011;27211;51.220;5.308;2022-07-23T14:03:11;5.95;;;1.92;;
41470;SDS011;27211;51.220;5.308;2022-07-23T14:05:37;2.67;;;1.70;;
41470;SDS011;27211;51.220;5.308;2022-07-23T14:08:04;5.38;;;1.73;;
41470;SDS011;27211;51.220;5.308;2022-07-23T14:10:30;3.75;;;1.48;;
41470;SDS011;27211;51.220;5.308;2022-07-23T14:12:56;5.03;;;1.60;;
41470;SDS011;27211;51.220;5.308;2022-07-23T14:15:24;3.10;;;1.60;;
41470;SDS011;27211;51.220;5.308;2022-07-23T14:17:51;3.42;;;1.70;;
41470;SDS011;27211;51.220;5.308;2022-07-23T14:20:18;3.83;;;1.98;;
41470;SDS011;27211;51.220;5.308;2022-07-23T14:22:46;2.55;;;1.70;;
41470;SDS011;27211;51.220;5.308;2022-07-23T14:25:14;4.32;;;1.83;;
41470;SDS011;27211;51.220;5.308;2022-07-23T14:27:40;5.10;;;1.80;;
41470;SDS011;27211;51.220;5.308;2022-07-23T14:30:07;3.15;;;1.70;;
41470;SDS011;27211;51.220;5.308;2022-07-23T14:32:34;5.63;;;1.92;;
41470;SDS011;27211;51.220;5.308;2022-07-23T14:35:00;3.92;;;1.88;;
41470;SDS011;27211;51.220;5.308;2022-07-23T14:37:27;5.15;;;1.60;;
41470;SDS011;27211;51.220;5.308;2022-07-23T14:39:53;3.50;;;1.88;;
41470;SDS011;27211;51.220;5.308;2022-07-23T14:42:19;3.67;;;2.05;;
41470;SDS011;27211;51.220;5.308;2022-07-23T14:44:45;4.28;;;2.05;;
41470;SDS011;27211;51.220;5.308;2022-07-23T14:47:11;3.47;;;1.90;;
41470;SDS011;27211;51.220;5.308;2022-07-23T14:49:38;5.63;;;2.08;;
41470;SDS011;27211;51.220;5.308;2022-07-23T14:52:04;4.75;;;2.03;;
41470;SDS011;27211;51.220;5.308;2022-07-23T14:54:31;3.85;;;2.05;;
41470;SDS011;27211;51.220;5.308;2022-07-23T14:56:57;2.85;;;1.90;;
41470;SDS011;27211;51.220;5.308;2022-07-23T14:59:24;5.10;;;2.53;;
41470;SDS011;27211;51.220;5.308;2022-07-23T15:01:50;5.40;;;2.65;;
41470;SDS011;27211;51.220;5.308;2022-07-23T15:04:20;4.63;;;2.65;;
41470;SDS011;27211;51.220;5.308;2022-07-23T15:06:56;4.95;;;2.30;;
41470;SDS011;27211;51.220;5.308;2022-07-23T15:09:33;5.68;;;2.33;;
41470;SDS011;27211;51.220;5.308;2022-07-23T15:11:59;4.07;;;2.28;;
41470;SDS011;27211;51.220;5.308;2022-07-23T15:14:25;4.57;;;2.40;;
41470;SDS011;27211;51.220;5.308;2022-07-23T15:16:55;4.28;;;2.40;;
41470;SDS011;27211;51.220;5.308;2022-07-23T15:19:23;5.18;;;2.40;;
41470;SDS011;27211;51.220;5.308;2022-07-23T15:21:49;3.88;;;2.40;;
41470;SDS011;27211;51.220;5.308;2022-07-23T15:24:17;4.88;;;2.60;;
41470;SDS011;27211;51.220;5.308;2022-07-23T15:26:43;4.88;;;2.33;;
41470;SDS011;27211;51.220;5.308;2022-07-23T15:29:11;4.50;;;2.20;;
41470;SDS011;27211;51.220;5.308;2022-07-23T15:31:46;7.55;;;2.40;;
41470;SDS011;27211;51.220;5.308;2022-07-23T15:34:12;6.22;;;2.40;;
41470;SDS011;27211;51.220;5.308;2022-07-23T15:36:40;5.88;;;2.53;;
41470;SDS011;27211;51.220;5.308;2022-07-23T15:39:11;4.25;;;2.38;;
41470;SDS011;27211;51.220;5.308;2022-07-23T15:41:39;4.75;;;2.20;;
41470;SDS011;27211;51.220;5.308;2022-07-23T15:44:08;4.07;;;2.20;;
41470;SDS011;27211;51.220;5.308;2022-07-23T15:46:50;4.57;;;2.30;;
41470;SDS011;27211;51.220;5.308;2022-07-23T15:49:20;3.63;;;2.25;;
41470;SDS011;27211;51.220;5.308;2022-07-23T15:51:57;8.02;;;2.85;;
41470;SDS011;27211;51.220;5.308;2022-07-23T15:54:40;4.32;;;2.60;;
41470;SDS011;27211;51.220;5.308;2022-07-23T15:57:07;5.32;;;2.40;;
41470;SDS011;27211;51.220;5.308;2022-07-23T15:59:32;4.90;;;2.58;;
41470;SDS011;27211;51.220;5.308;2022-07-23T16:01:59;4.85;;;2.65;;
41470;SDS011;27211;51.220;5.308;2022-07-23T16:04:25;3.92;;;2.42;;